Terminal Aerodrome Forecast
Issued by NWS

Home | Current Version | Previous Version | Text Only | Print | Product List | Glossary On
Versions: 1 2 3 4 5 6 7 8 9 10 11 12 13 14
032
FTUS46 KSTO 271741
TAFSAC
TAF
KSAC 271741Z 2718/2818 21005KT P6SM FEW010 SCT050
      TEMPO 2718/2719 BKN010
     FM272100 32009KT P6SM SCT250=

USA.gov is the U.S. government's official web portal to all federal, state and local government web resources and services.